Latest Weather Observations for Rosslyn Bay Harbour

IDQ60801

Issued at 1:05 pm EST Wednesday 30 July 2014 (issued every 30 minutes, with the page automatically refreshed every 10 minutes)

About weather observations | Map of weather stations | Latest weather observations for QLD | Other Formats
Station Details ID: 033208 Name: ROSSLYN BAY NTC AWS Lat: -23.16 Lon: 150.79 Height: 0.0 m
Data from the previous 72 hours. | See also: Recent months for locations in Queensland
Date/Time
EST
Temp
°C
App
Temp
°C
Dew
Point
Rel
Hum
%
Delta-T
°C
Wind Press
QNH
hPa
Press
MSL
hPa
Rain
since 9 am
mm
Dir
 
Spd
km/h
Gust
km/h
Spd
kts
Gust
kts
30/01:00pm 20.4 - - - - NE 4 11 2 6 1020.5 1020.5 -
30/12:30pm 20.0 - - - - ENE 6 9 3 5 1021.2 - -
30/12:00pm 20.5 - - - - S 4 11 2 6 1021.8 1021.8 -
30/11:30am 19.4 - - - - S 11 17 6 9 1022.3 - -
30/11:00am 19.0 - - - - S 11 15 6 8 1022.6 1022.6 -
30/10:30am 18.9 - - - - S 9 13 5 7 1023.2 - -
30/10:00am 18.6 - - - - S 9 15 5 8 1023.5 1023.5 -
30/09:30am 18.5 - - - - S 4 7 2 4 1023.7 - -
30/09:00am 18.3 - - - - NE 2 4 1 2 1023.7 1023.7 -
30/08:30am 18.4 - - - - SE 2 4 1 2 1023.6 - -
30/08:00am 15.8 - - - - S 6 9 3 5 1023.4 1023.4 -
30/07:30am 15.1 - - - - S 7 11 4 6 1023.1 - -
30/07:00am 14.4 - - - - S 11 15 6 8 1022.7 1022.7 -
30/06:30am 14.2 - - - - S 9 13 5 7 1022.3 - -
30/06:00am 14.2 - - - - S 7 13 4 7 1021.9 1021.9 -
30/05:30am 15.4 - - - - S 7 9 4 5 1021.6 - -
30/05:00am 15.9 - - - - S 6 7 3 4 1021.5 1021.5 -
30/04:30am 15.8 - - - - S 6 9 3 5 1021.3 - -
30/04:00am 15.7 - - - - CALM 0 4 0 2 1021.1 1021.1 -
30/03:30am 15.6 - - - - SW 2 4 1 2 1021.1 - -
30/03:00am 15.4 - - - - SW 2 4 1 2 1021.1 1021.1 -
30/02:30am 15.6 - - - - SW 2 4 1 2 1021.2 - -
30/02:00am 15.9 - - - - SW 2 4 1 2 1021.3 1021.3 -
30/01:30am 15.9 - - - - SW 4 4 2 2 1021.3 - -
30/01:00am 16.1 - - - - W 2 4 1 2 1021.4 1021.4 -
30/12:30am 16.7 - - - - SSW 2 4 1 2 1021.7 - -
30/12:00am 17.6 - - - - SSW 2 4 1 2 1021.6 1021.6 -
 
Date/Time
EST
Temp
°C
App
Temp
°C
Dew
Point
Rel
Hum
%
Delta-T
°C
Wind Press
QNH
hPa
Press
MSL
hPa
Rain
since 9 am
mm
Dir
 
Spd
km/h
Gust
km/h
Spd
kts
Gust
kts
29/11:30pm 18.1 - - - - S 4 4 2 2 1021.6 - -
29/11:00pm 17.4 - - - - SW 2 4 1 2 1021.6 1021.6 -
29/10:30pm 18.6 - - - - NNW 6 9 3 5 1021.6 - -
29/10:00pm 18.6 - - - - NNW 6 7 3 4 1021.7 1021.7 -
29/09:30pm 18.6 - - - - NNW 6 7 3 4 1021.6 - -
29/09:00pm 19.2 - - - - N 7 15 4 8 1021.3 1021.3 -
29/08:30pm 19.8 - - - - NNE 11 15 6 8 1021.2 - -
29/08:00pm 19.7 - - - - NNE 11 15 6 8 1021.4 1021.4 -
29/07:30pm 19.7 - - - - NNE 9 13 5 7 1021.3 - -
29/07:00pm 19.7 - - - - NNE 9 15 5 8 1021.0 1021.0 -
29/06:30pm 19.8 - - - - NE 9 15 5 8 1020.7 - -
29/06:00pm 19.8 - - - - NE 9 15 5 8 1020.5 1020.5 -
29/05:30pm 19.9 - - - - NNE 9 15 5 8 1020.2 - -
29/05:00pm 20.1 - - - - NNE 9 15 5 8 1019.9 1019.9 -
29/04:30pm 20.3 - - - - NNE 11 19 6 10 1019.8 - -
29/04:00pm 20.1 - - - - NE 9 11 5 6 1019.9 1019.9 -
29/03:30pm 20.0 - - - - NE 7 9 4 5 1020.0 - -
29/03:00pm 20.1 - - - - NE 7 9 4 5 1020.1 1020.1 -
29/02:30pm 19.8 - - - - ENE 7 9 4 5 1020.3 - -
29/02:00pm 19.9 - - - - ENE 6 9 3 5 1020.4 1020.4 -
29/01:30pm 19.8 - - - - ENE 6 9 3 5 1020.6 - -
29/01:00pm 19.4 - - - - E 6 7 3 4 1021.1 1021.1 -
29/12:30pm 19.5 - - - - E 6 7 3 4 1021.4 - -
29/12:00pm 19.6 - - - - ENE 4 7 2 4 1021.9 1021.9 -
29/11:30am 19.7 - - - - ENE 6 7 3 4 1022.4 - -
29/11:00am 19.0 - - - - E 6 9 3 5 1022.9 1022.9 -
29/10:30am 19.6 - - - - S 2 7 1 4 1023.2 - -
29/10:00am 19.2 - - - - S 4 7 2 4 1023.5 1023.5 -
29/09:30am 18.4 - - - - SSE 6 9 3 5 1023.7 - -
29/09:00am 18.1 - - - - SSE 6 7 3 4 1023.8 1023.8 -
29/08:30am 17.8 - - - - S 2 6 1 3 1023.7 - -
29/08:00am 16.1 - - - - W 2 4 1 2 1023.6 1023.6 -
29/07:30am 15.7 - - - - WSW 2 4 1 2 1023.3 - -
29/07:00am 15.3 - - - - WSW 2 4 1 2 1023.0 1023.0 -
29/06:30am 16.2 - - - - S 6 7 3 4 1022.5 - -
29/06:00am 16.1 - - - - S 7 9 4 5 1022.4 1022.4 -
29/05:30am 15.9 - - - - S 6 9 3 5 1022.1 - -
29/05:00am 15.7 - - - - S 4 7 2 4 1021.8 1021.8 -
29/04:30am 15.6 - - - - S 7 9 4 5 1021.5 - -
29/04:00am 15.7 - - - - S 7 11 4 6 1021.1 1021.1 -
29/03:30am 16.2 - - - - S 9 9 5 5 1020.9 - -
29/03:00am 16.3 - - - - S 7 9 4 5 1020.8 1020.8 -
29/02:30am 16.7 - - - - S 6 9 3 5 1021.0 - -
29/02:00am 17.0 - - - - S 4 6 2 3 1021.0 1021.0 -
29/01:30am 17.1 - - - - S 4 6 2 3 1021.2 - -
29/01:00am 17.1 - - - - S 7 9 4 5 1021.3 1021.3 -
29/12:30am 17.5 - - - - S 6 7 3 4 1021.5 - -
29/12:00am 17.4 - - - - S 7 9 4 5 1021.7 1021.7 -
 
Date/Time
EST
Temp
°C
App
Temp
°C
Dew
Point
Rel
Hum
%
Delta-T
°C
Wind Press
QNH
hPa
Press
MSL
hPa
Rain
since 9 am
mm
Dir
 
Spd
km/h
Gust
km/h
Spd
kts
Gust
kts
28/11:30pm 17.7 - - - - S 6 9 3 5 1021.8 - -
28/11:00pm 18.2 - - - - S 4 7 2 4 1021.8 1021.8 -
28/10:30pm 17.9 - - - - SW 2 4 1 2 1021.8 - -
28/10:00pm 19.9 - - - - ENE 4 6 2 3 1021.8 1021.8 -
28/09:30pm 19.9 - - - - E 9 13 5 7 1021.6 - -
28/09:00pm 20.0 - - - - E 7 11 4 6 1021.5 1021.5 -
28/08:30pm 19.9 - - - - E 7 13 4 7 1021.4 - -
28/08:00pm 19.8 - - - - E 7 11 4 6 1021.2 1021.2 -
28/07:30pm 19.7 - - - - ENE 7 11 4 6 1021.1 - -
28/07:00pm 19.8 - - - - ENE 7 11 4 6 1020.8 1020.8 -
28/06:30pm 19.8 - - - - ENE 9 17 5 9 1020.5 - -
28/06:00pm 20.0 - - - - ENE 11 19 6 10 1020.2 1020.2 -
28/05:30pm 19.9 - - - - ENE 13 19 7 10 1020.0 - -
28/05:00pm 20.0 - - - - ENE 11 19 6 10 1019.9 1019.9 -
28/04:30pm 20.2 - - - - ENE 11 17 6 9 1019.6 - -
28/04:00pm 20.1 - - - - ENE 11 17 6 9 1019.5 1019.5 -
28/03:30pm 20.4 - - - - ENE 11 17 6 9 1019.4 - -
28/03:00pm 20.5 - - - - NE 6 13 3 7 1019.5 1019.5 -
28/02:30pm 20.7 - - - - SW 4 9 2 5 1019.9 - -
28/02:00pm 21.0 - - - - SW 4 9 2 5 1020.3 1020.3 -
28/01:30pm 20.4 - - - - WSW 6 11 3 6 1020.8 - -
28/01:00pm 20.5 - - - - SW 2 7 1 4 1021.4 1021.4 -
28/12:30pm 20.3 - - - - S 4 9 2 5 1021.9 - -
28/12:00pm 19.9 - - - - S 11 17 6 9 1022.4 1022.4 -
28/11:30am 18.9 - - - - S 11 19 6 10 1022.9 - -
28/11:00am 18.8 - - - - S 11 17 6 9 1023.4 1023.4 -
28/10:30am 18.5 - - - - S 9 17 5 9 1023.6 - -
28/10:00am 18.3 - - - - S 9 15 5 8 1023.8 1023.8 -
28/09:30am 18.3 - - - - S 7 13 4 7 1023.9 - -
28/09:00am 17.8 - - - - S 6 13 3 7 1023.8 1023.8 -
28/08:30am 16.2 - - - - S 7 11 4 6 1023.5 - -
28/08:00am 15.3 - - - - S 7 11 4 6 1023.3 1023.3 -
28/07:30am 15.2 - - - - S 7 11 4 6 1022.9 - -
28/07:00am 15.2 - - - - S 7 11 4 6 1022.7 1022.7 -
28/06:30am 15.2 - - - - S 6 9 3 5 1022.2 - -
28/06:00am 15.0 - - - - S 6 9 3 5 1022.0 1022.0 -
28/05:30am 15.0 - - - - S 7 13 4 7 1021.7 - -
28/05:00am 15.2 - - - - S 9 13 5 7 1021.5 1021.5 -
28/04:30am 15.4 - - - - S 7 13 4 7 1021.2 - -
28/04:00am 15.6 - - - - S 7 9 4 5 1021.3 1021.3 -
28/03:30am 15.5 - - - - S 6 11 3 6 1021.4 - -
28/03:00am 16.1 - - - - S 6 11 3 6 1021.4 1021.4 -
28/02:30am 16.3 - - - - S 6 7 3 4 1021.5 - -
28/02:00am 17.0 - - - - S 6 9 3 5 1021.5 1021.5 -
28/01:30am 17.2 - - - - S 6 7 3 4 1021.9 - -
28/01:00am 16.4 - - - - SW 2 4 1 2 1022.2 1022.2 -
28/12:30am 16.7 - - - - WSW 2 2 1 1 1022.3 - -
28/12:00am 16.7 - - - - SW 2 4 1 2 1022.6 1022.6 -
 
Date/Time
EST
Temp
°C
App
Temp
°C
Dew
Point
Rel
Hum
%
Delta-T
°C
Wind Press
QNH
hPa
Press
MSL
hPa
Rain
since 9 am
mm
Dir
 
Spd
km/h
Gust
km/h
Spd
kts
Gust
kts
27/11:30pm 16.8 - - - - WSW 4 4 2 2 1022.7 - -
27/11:00pm 17.6 - - - - S 7 9 4 5 1022.9 1022.9 -
27/10:30pm 17.5 - - - - S 6 7 3 4 1023.0 - -
27/10:00pm 17.6 - - - - S 6 7 3 4 1022.9 1022.9 -
27/09:30pm 18.4 - - - - S 6 7 3 4 1022.8 - -
27/09:00pm 17.5 - - - - S 7 7 4 4 1022.7 1022.7 -
27/08:30pm 18.0 - - - - S 6 9 3 5 1022.5 - -
27/08:00pm 18.2 - - - - S 4 9 2 5 1022.2 1022.2 -
27/07:30pm 19.0 - - - - CALM 0 2 0 1 1021.8 - -
27/07:00pm 19.3 - - - - NW 2 4 1 2 1021.6 1021.6 -
27/06:30pm 19.5 - - - - NNE 4 6 2 3 1021.1 - -
27/06:00pm 19.9 - - - - NE 7 9 4 5 1020.7 1020.7 -
27/05:30pm 19.7 - - - - NNE 7 11 4 6 1020.4 - -
27/05:00pm 19.9 - - - - N 9 13 5 7 1020.3 1020.3 -
27/04:30pm 20.3 - - - - N 7 11 4 6 1020.2 - -
27/04:00pm 20.3 - - - - N 6 9 3 5 1020.0 1020.0 -
27/03:30pm 20.2 - - - - NNE 9 15 5 8 1020.1 - -
27/03:00pm 20.2 - - - - NE 7 9 4 5 1020.0 1020.0 -
27/02:30pm 20.3 - - - - ENE 9 15 5 8 1020.3 - -
27/02:00pm 19.9 - - - - ENE 9 13 5 7 1020.6 1020.6 -
27/01:30pm 18.5 - - - - NE 7 11 4 6 1021.2 - -

Other Formats:

Comma delimited format used in spreadsheet applications
http://www.bom.gov.au/fwo/IDQ60801/IDQ60801.95298.axf

JavaScript Object Notation format (JSON) in row-major order
http://www.bom.gov.au/fwo/IDQ60801/IDQ60801.95298.json